sensor_id;sensor_type;location;lat;lon;timestamp;pressure;altitude;pressure_sealevel;temperature;humidity
69751;BME280;57335;52.288;6.056;2023-04-30T00:00:34;102407.75;;;5.02;100.00
69751;BME280;57335;52.288;6.056;2023-04-30T00:03:00;102393.63;;;4.94;100.00
69751;BME280;57335;52.288;6.056;2023-04-30T00:05:27;102397.19;;;4.93;100.00
69751;BME280;57335;52.288;6.056;2023-04-30T00:07:53;102404.59;;;4.98;100.00
69751;BME280;57335;52.288;6.056;2023-04-30T00:10:20;102395.81;;;4.89;100.00
69751;BME280;57335;52.288;6.056;2023-04-30T00:12:46;102415.22;;;4.95;100.00
69751;BME280;57335;52.288;6.056;2023-04-30T00:15:12;102397.25;;;4.82;100.00
69751;BME280;57335;52.288;6.056;2023-04-30T00:17:38;102419.19;;;4.89;100.00
69751;BME280;57335;52.288;6.056;2023-04-30T00:20:05;102409.56;;;4.80;100.00
69751;BME280;57335;52.288;6.056;2023-04-30T00:22:32;102416.13;;;4.84;100.00
69751;BME280;57335;52.288;6.056;2023-04-30T00:24:58;102411.06;;;4.83;100.00
69751;BME280;57335;52.288;6.056;2023-04-30T00:27:24;102403.66;;;4.78;100.00
69751;BME280;57335;52.288;6.056;2023-04-30T00:29:51;102409.44;;;4.82;100.00
69751;BME280;57335;52.288;6.056;2023-04-30T00:32:17;102402.16;;;4.75;100.00
69751;BME280;57335;52.288;6.056;2023-04-30T00:34:44;102415.69;;;4.79;100.00
69751;BME280;57335;52.288;6.056;2023-04-30T00:37:10;102401.00;;;4.68;100.00
69751;BME280;57335;52.288;6.056;2023-04-30T00:39:36;102393.22;;;4.68;100.00
69751;BME280;57335;52.288;6.056;2023-04-30T00:42:03;102393.50;;;4.65;100.00
69751;BME280;57335;52.288;6.056;2023-04-30T00:44:29;102406.09;;;4.70;100.00
69751;BME280;57335;52.288;6.056;2023-04-30T00:46:55;102401.41;;;4.64;100.00
69751;BME280;57335;52.288;6.056;2023-04-30T00:49:22;102410.81;;;4.65;100.00
69751;BME280;57335;52.288;6.056;2023-04-30T00:51:49;102401.41;;;4.64;100.00
69751;BME280;57335;52.288;6.056;2023-04-30T00:54:16;102410.13;;;4.63;100.00
69751;BME280;57335;52.288;6.056;2023-04-30T00:56:45;102406.25;;;4.57;100.00
69751;BME280;57335;52.288;6.056;2023-04-30T00:59:14;102413.41;;;4.65;100.00
69751;BME280;57335;52.288;6.056;2023-04-30T01:01:40;102398.34;;;4.58;100.00
69751;BME280;57335;52.288;6.056;2023-04-30T01:04:07;102402.50;;;4.61;100.00
69751;BME280;57335;52.288;6.056;2023-04-30T01:06:33;102411.28;;;4.70;100.00
69751;BME280;57335;52.288;6.056;2023-04-30T01:09:00;102401.66;;;4.60;100.00
69751;BME280;57335;52.288;6.056;2023-04-30T01:11:51;102425.34;;;4.67;100.00
69751;BME280;57335;52.288;6.056;2023-04-30T01:14:29;102425.88;;;4.61;100.00
69751;BME280;57335;52.288;6.056;2023-04-30T01:17:07;102422.22;;;4.52;100.00
69751;BME280;57335;52.288;6.056;2023-04-30T01:19:41;102431.00;;;4.51;100.00
69751;BME280;57335;52.288;6.056;2023-04-30T01:22:22;102433.59;;;4.51;100.00
69751;BME280;57335;52.288;6.056;2023-04-30T01:28:08;102428.63;;;4.48;100.00
69751;BME280;57335;52.288;6.056;2023-04-30T01:30:36;102424.63;;;4.44;100.00
69751;BME280;57335;52.288;6.056;2023-04-30T01:33:03;102421.47;;;4.40;100.00
69751;BME280;57335;52.288;6.056;2023-04-30T01:38:20;102421.16;;;4.34;100.00
69751;BME280;57335;52.288;6.056;2023-04-30T01:40:57;102423.56;;;4.26;100.00
69751;BME280;57335;52.288;6.056;2023-04-30T01:43:39;102430.88;;;4.20;100.00
69751;BME280;57335;52.288;6.056;2023-04-30T01:46:19;102430.34;;;4.17;100.00
69751;BME280;57335;52.288;6.056;2023-04-30T01:49:17;102437.03;;;4.19;100.00
69751;BME280;57335;52.288;6.056;2023-04-30T01:51:46;102426.56;;;4.10;100.00
69751;BME280;57335;52.288;6.056;2023-04-30T01:54:28;102429.28;;;4.08;100.00
69751;BME280;57335;52.288;6.056;2023-04-30T01:57:02;102427.50;;;4.09;100.00
69751;BME280;57335;52.288;6.056;2023-04-30T01:59:31;102432.84;;;4.07;100.00
69751;BME280;57335;52.288;6.056;2023-04-30T02:01:58;102434.97;;;4.02;100.00
69751;BME280;57335;52.288;6.056;2023-04-30T02:04:24;102433.19;;;4.03;100.00
69751;BME280;57335;52.288;6.056;2023-04-30T02:06:51;102430.50;;;3.93;100.00
69751;BME280;57335;52.288;6.056;2023-04-30T02:09:17;102427.91;;;3.93;100.00
69751;BME280;57335;52.288;6.056;2023-04-30T02:11:43;102439.72;;;3.97;100.00
69751;BME280;57335;52.288;6.056;2023-04-30T02:14:10;102440.19;;;3.91;100.00
69751;BME280;57335;52.288;6.056;2023-04-30T02:16:36;102444.44;;;3.92;100.00
69751;BME280;57335;52.288;6.056;2023-04-30T02:19:02;102440.56;;;3.86;100.00
69751;BME280;57335;52.288;6.056;2023-04-30T02:21:29;102442.22;;;3.87;100.00
69751;BME280;57335;52.288;6.056;2023-04-30T02:23:55;102437.63;;;3.79;100.00
69751;BME280;57335;52.288;6.056;2023-04-30T02:26:21;102450.50;;;3.81;100.00
69751;BME280;57335;52.288;6.056;2023-04-30T02:28:48;102446.13;;;3.70;100.00
69751;BME280;57335;52.288;6.056;2023-04-30T02:31:14;102444.63;;;3.68;100.00
69751;BME280;57335;52.288;6.056;2023-04-30T02:33:40;102438.13;;;3.62;100.00
69751;BME280;57335;52.288;6.056;2023-04-30T02:36:06;102444.03;;;3.64;100.00
69751;BME280;57335;52.288;6.056;2023-04-30T02:38:33;102446.97;;;3.59;100.00
69751;BME280;57335;52.288;6.056;2023-04-30T02:40:59;102446.16;;;3.59;100.00
69751;BME280;57335;52.288;6.056;2023-04-30T02:43:25;102423.66;;;3.48;100.00
69751;BME280;57335;52.288;6.056;2023-04-30T02:45:52;102436.97;;;3.55;100.00
69751;BME280;57335;52.288;6.056;2023-04-30T02:48:18;102419.56;;;3.46;100.00
69751;BME280;57335;52.288;6.056;2023-04-30T02:50:44;102426.63;;;3.44;100.00
69751;BME280;57335;52.288;6.056;2023-04-30T02:53:11;102434.03;;;3.48;100.00
69751;BME280;57335;52.288;6.056;2023-04-30T02:55:37;102434.13;;;3.47;100.00
69751;BME280;57335;52.288;6.056;2023-04-30T02:58:03;102431.81;;;3.44;100.00
69751;BME280;57335;52.288;6.056;2023-04-30T03:00:30;102420.50;;;3.33;100.00
69751;BME280;57335;52.288;6.056;2023-04-30T03:02:56;102428.16;;;3.35;100.00
69751;BME280;57335;52.288;6.056;2023-04-30T03:05:23;102431.34;;;3.27;100.00
69751;BME280;57335;52.288;6.056;2023-04-30T03:07:49;102432.38;;;3.25;100.00
69751;BME280;57335;52.288;6.056;2023-04-30T03:10:15;102422.97;;;3.12;100.00
69751;BME280;57335;52.288;6.056;2023-04-30T03:12:42;102425.44;;;3.14;100.00
69751;BME280;57335;52.288;6.056;2023-04-30T03:15:08;102428.88;;;3.14;100.00
69751;BME280;57335;52.288;6.056;2023-04-30T03:17:34;102428.28;;;3.11;100.00
69751;BME280;57335;52.288;6.056;2023-04-30T03:20:01;102411.91;;;2.99;100.00
69751;BME280;57335;52.288;6.056;2023-04-30T03:22:27;102421.44;;;2.98;100.00
69751;BME280;57335;52.288;6.056;2023-04-30T03:24:53;102418.72;;;3.00;100.00
69751;BME280;57335;52.288;6.056;2023-04-30T03:27:20;102419.34;;;3.04;100.00
69751;BME280;57335;52.288;6.056;2023-04-30T03:29:46;102412.97;;;2.96;100.00
69751;BME280;57335;52.288;6.056;2023-04-30T03:32:12;102420.50;;;2.99;100.00
69751;BME280;57335;52.288;6.056;2023-04-30T03:34:39;102415.56;;;2.96;100.00
69751;BME280;57335;52.288;6.056;2023-04-30T03:37:05;102429.19;;;2.98;100.00
69751;BME280;57335;52.288;6.056;2023-04-30T03:39:31;102421.56;;;2.97;100.00
69751;BME280;57335;52.288;6.056;2023-04-30T03:41:58;102420.88;;;2.95;100.00
69751;BME280;57335;52.288;6.056;2023-04-30T03:44:24;102425.19;;;2.94;100.00
69751;BME280;57335;52.288;6.056;2023-04-30T03:46:50;102404.38;;;2.85;100.00
69751;BME280;57335;52.288;6.056;2023-04-30T03:49:16;102417.69;;;2.91;100.00
69751;BME280;57335;52.288;6.056;2023-04-30T03:51:43;102405.41;;;2.82;100.00
69751;BME280;57335;52.288;6.056;2023-04-30T03:54:09;102403.78;;;2.81;100.00
69751;BME280;57335;52.288;6.056;2023-04-30T03:56:36;102416.88;;;2.91;100.00
69751;BME280;57335;52.288;6.056;2023-04-30T03:59:02;102404.50;;;2.83;100.00
69751;BME280;57335;52.288;6.056;2023-04-30T04:01:29;102418.59;;;2.90;100.00
69751;BME280;57335;52.288;6.056;2023-04-30T04:03:55;102402.94;;;2.80;100.00
69751;BME280;57335;52.288;6.056;2023-04-30T04:06:22;102417.19;;;2.86;100.00
69751;BME280;57335;52.288;6.056;2023-04-30T04:08:48;102418.97;;;2.86;100.00
69751;BME280;57335;52.288;6.056;2023-04-30T04:11:14;102418.84;;;2.87;100.00
69751;BME280;57335;52.288;6.056;2023-04-30T04:13:41;102419.19;;;2.83;100.00
69751;BME280;57335;52.288;6.056;2023-04-30T04:16:07;102410.84;;;2.79;100.00
69751;BME280;57335;52.288;6.056;2023-04-30T04:18:33;102418.72;;;2.77;100.00
69751;BME280;57335;52.288;6.056;2023-04-30T04:21:00;102412.84;;;2.75;100.00
69751;BME280;57335;52.288;6.056;2023-04-30T04:23:26;102403.66;;;2.71;100.00
69751;BME280;57335;52.288;6.056;2023-04-30T04:25:52;102410.84;;;2.79;100.00
69751;BME280;57335;52.288;6.056;2023-04-30T04:28:19;102403.66;;;2.71;100.00
69751;BME280;57335;52.288;6.056;2023-04-30T04:30:45;102414.34;;;2.78;100.00
69751;BME280;57335;52.288;6.056;2023-04-30T04:33:11;102407.75;;;2.74;100.00
69751;BME280;57335;52.288;6.056;2023-04-30T04:35:38;102411.56;;;2.81;100.00
69751;BME280;57335;52.288;6.056;2023-04-30T04:38:04;102406.84;;;2.86;100.00
69751;BME280;57335;52.288;6.056;2023-04-30T04:40:30;102409.91;;;2.91;100.00
69751;BME280;57335;52.288;6.056;2023-04-30T04:42:57;102395.44;;;2.89;100.00
69751;BME280;57335;52.288;6.056;2023-04-30T04:45:23;102408.16;;;3.03;100.00
69751;BME280;57335;52.288;6.056;2023-04-30T04:47:49;102402.38;;;2.99;100.00
69751;BME280;57335;52.288;6.056;2023-04-30T04:50:16;102419.81;;;3.09;100.00
69751;BME280;57335;52.288;6.056;2023-04-30T04:52:42;102417.78;;;3.12;100.00
69751;BME280;57335;52.288;6.056;2023-04-30T04:55:08;102438.63;;;3.22;100.00
69751;BME280;57335;52.288;6.056;2023-04-30T04:57:35;102440.66;;;3.30;100.00
69751;BME280;57335;52.288;6.056;2023-04-30T05:00:01;102426.63;;;3.32;100.00
69751;BME280;57335;52.288;6.056;2023-04-30T05:02:27;102437.69;;;3.46;100.00
69751;BME280;57335;52.288;6.056;2023-04-30T05:04:54;102431.09;;;3.53;100.00
69751;BME280;57335;52.288;6.056;2023-04-30T05:07:20;102440.84;;;3.72;100.00
69751;BME280;57335;52.288;6.056;2023-04-30T05:09:47;102426.69;;;3.76;100.00
69751;BME280;57335;52.288;6.056;2023-04-30T05:12:13;102450.31;;;3.94;100.00
69751;BME280;57335;52.288;6.056;2023-04-30T05:14:40;102446.03;;;4.04;100.00
69751;BME280;57335;52.288;6.056;2023-04-30T05:17:06;102455.44;;;4.16;100.00
69751;BME280;57335;52.288;6.056;2023-04-30T05:19:33;102451.34;;;4.35;100.00
69751;BME280;57335;52.288;6.056;2023-04-30T05:21:59;102452.75;;;4.60;100.00
69751;BME280;57335;52.288;6.056;2023-04-30T05:24:27;102442.56;;;4.89;100.00
69751;BME280;57335;52.288;6.056;2023-04-30T05:26:53;102437.53;;;5.28;100.00
69751;BME280;57335;52.288;6.056;2023-04-30T05:29:19;102438.34;;;5.69;100.00
69751;BME280;57335;52.288;6.056;2023-04-30T05:31:46;102447.56;;;6.32;100.00
69751;BME280;57335;52.288;6.056;2023-04-30T05:34:12;102435.06;;;7.12;100.00
69751;BME280;57335;52.288;6.056;2023-04-30T05:36:38;102441.25;;;8.20;100.00
69751;BME280;57335;52.288;6.056;2023-04-30T05:39:05;102447.00;;;9.28;100.00
69751;BME280;57335;52.288;6.056;2023-04-30T05:41:32;102438.66;;;10.25;94.76
69751;BME280;57335;52.288;6.056;2023-04-30T05:43:58;102444.84;;;11.29;90.36
69751;BME280;57335;52.288;6.056;2023-04-30T05:46:24;102445.59;;;12.23;83.04
69751;BME280;57335;52.288;6.056;2023-04-30T05:48:54;102461.56;;;13.19;80.57
69751;BME280;57335;52.288;6.056;2023-04-30T05:51:20;102463.88;;;14.02;75.01
69751;BME280;57335;52.288;6.056;2023-04-30T05:53:47;102443.69;;;14.65;68.92
69751;BME280;57335;52.288;6.056;2023-04-30T05:56:13;102467.81;;;15.39;64.23
69751;BME280;57335;52.288;6.056;2023-04-30T05:58:40;102467.84;;;15.45;62.44
69751;BME280;57335;52.288;6.056;2023-04-30T06:01:06;102474.31;;;15.36;62.65
69751;BME280;57335;52.288;6.056;2023-04-30T06:03:32;102462.97;;;15.49;68.80
69751;BME280;57335;52.288;6.056;2023-04-30T06:05:59;102463.91;;;15.83;65.45
69751;BME280;57335;52.288;6.056;2023-04-30T06:08:25;102464.34;;;16.26;61.69
69751;BME280;57335;52.288;6.056;2023-04-30T06:10:51;102470.84;;;16.64;61.51
69751;BME280;57335;52.288;6.056;2023-04-30T06:13:18;102465.84;;;17.07;64.04
69751;BME280;57335;52.288;6.056;2023-04-30T06:15:44;102480.59;;;17.80;59.74
69751;BME280;57335;52.288;6.056;2023-04-30T06:18:11;102478.59;;;18.32;58.42
69751;BME280;57335;52.288;6.056;2023-04-30T06:20:38;102480.50;;;18.87;54.80
69751;BME280;57335;52.288;6.056;2023-04-30T06:23:04;102486.50;;;18.83;54.33
69751;BME280;57335;52.288;6.056;2023-04-30T06:25:31;102480.06;;;19.09;52.47
69751;BME280;57335;52.288;6.056;2023-04-30T06:27:57;102485.41;;;19.39;54.00
69751;BME280;57335;52.288;6.056;2023-04-30T06:30:23;102487.47;;;19.67;50.09
69751;BME280;57335;52.288;6.056;2023-04-30T06:32:50;102482.59;;;19.83;49.41
69751;BME280;57335;52.288;6.056;2023-04-30T06:35:16;102480.63;;;19.90;49.73
69751;BME280;57335;52.288;6.056;2023-04-30T06:37:43;102477.88;;;20.08;47.29
69751;BME280;57335;52.288;6.056;2023-04-30T06:40:09;102488.44;;;20.27;48.82
69751;BME280;57335;52.288;6.056;2023-04-30T06:42:36;102489.13;;;20.34;49.03
69751;BME280;57335;52.288;6.056;2023-04-30T06:45:03;102485.53;;;20.52;48.36
69751;BME280;57335;52.288;6.056;2023-04-30T06:47:29;102484.59;;;20.46;46.04
69751;BME280;57335;52.288;6.056;2023-04-30T06:49:56;102480.78;;;20.07;46.39
69751;BME280;57335;52.288;6.056;2023-04-30T06:52:22;102477.72;;;19.80;46.67
69751;BME280;57335;52.288;6.056;2023-04-30T06:54:48;102485.03;;;19.66;47.93
69751;BME280;57335;52.288;6.056;2023-04-30T06:57:15;102478.06;;;19.53;48.49
69751;BME280;57335;52.288;6.056;2023-04-30T06:59:41;102474.63;;;19.64;46.61
69751;BME280;57335;52.288;6.056;2023-04-30T07:02:07;102477.88;;;19.66;48.12
69751;BME280;57335;52.288;6.056;2023-04-30T07:04:34;102471.75;;;19.36;47.15
69751;BME280;57335;52.288;6.056;2023-04-30T07:07:00;102486.25;;;19.21;47.21
69751;BME280;57335;52.288;6.056;2023-04-30T07:09:30;102481.59;;;18.98;48.09
69751;BME280;57335;52.288;6.056;2023-04-30T07:11:56;102483.69;;;18.96;48.45
69751;BME280;57335;52.288;6.056;2023-04-30T07:14:23;102470.94;;;18.86;47.96
69751;BME280;57335;52.288;6.056;2023-04-30T07:16:49;102487.09;;;18.78;48.98
69751;BME280;57335;52.288;6.056;2023-04-30T07:19:16;102479.88;;;18.48;50.40
69751;BME280;57335;52.288;6.056;2023-04-30T07:21:42;102484.06;;;18.56;49.67
69751;BME280;57335;52.288;6.056;2023-04-30T07:24:08;102479.34;;;18.14;50.45
69751;BME280;57335;52.288;6.056;2023-04-30T07:26:35;102492.44;;;18.34;50.69
69751;BME280;57335;52.288;6.056;2023-04-30T07:29:01;102487.25;;;18.65;49.40
69751;BME280;57335;52.288;6.056;2023-04-30T07:31:28;102485.19;;;18.67;48.88
69751;BME280;57335;52.288;6.056;2023-04-30T07:33:54;102479.78;;;18.37;49.86
69751;BME280;57335;52.288;6.056;2023-04-30T07:36:21;102482.66;;;18.53;50.77
69751;BME280;57335;52.288;6.056;2023-04-30T07:38:47;102489.38;;;18.81;50.46
69751;BME280;57335;52.288;6.056;2023-04-30T07:41:14;102477.09;;;19.17;47.89
69751;BME280;57335;52.288;6.056;2023-04-30T07:43:40;102484.88;;;19.19;47.21
69751;BME280;57335;52.288;6.056;2023-04-30T07:46:06;102487.16;;;18.97;48.69
69751;BME280;57335;52.288;6.056;2023-04-30T07:48:33;102488.03;;;19.09;48.19
69751;BME280;57335;52.288;6.056;2023-04-30T07:50:59;102478.09;;;19.04;48.66
69751;BME280;57335;52.288;6.056;2023-04-30T07:53:26;102485.50;;;19.14;48.47
69751;BME280;57335;52.288;6.056;2023-04-30T07:55:52;102488.94;;;19.03;48.16
69751;BME280;57335;52.288;6.056;2023-04-30T07:58:18;102486.56;;;19.13;47.24
69751;BME280;57335;52.288;6.056;2023-04-30T08:00:44;102487.88;;;19.04;48.54
69751;BME280;57335;52.288;6.056;2023-04-30T08:03:11;102484.34;;;19.10;48.50
69751;BME280;57335;52.288;6.056;2023-04-30T08:05:37;102483.03;;;18.82;48.98
69751;BME280;57335;52.288;6.056;2023-04-30T08:08:04;102485.81;;;18.87;48.33
69751;BME280;57335;52.288;6.056;2023-04-30T08:10:30;102496.03;;;18.90;48.58
69751;BME280;57335;52.288;6.056;2023-04-30T08:12:57;102490.53;;;19.04;47.76
69751;BME280;57335;52.288;6.056;2023-04-30T08:15:23;102493.25;;;19.34;46.97
69751;BME280;57335;52.288;6.056;2023-04-30T08:17:50;102487.00;;;19.28;45.94
69751;BME280;57335;52.288;6.056;2023-04-30T08:20:16;102488.31;;;19.19;47.34
69751;BME280;57335;52.288;6.056;2023-04-30T08:22:43;102490.81;;;19.14;47.40
69751;BME280;57335;52.288;6.056;2023-04-30T08:25:10;102498.06;;;19.25;47.25
69751;BME280;57335;52.288;6.056;2023-04-30T08:27:37;102487.34;;;19.32;46.33
69751;BME280;57335;52.288;6.056;2023-04-30T08:30:05;102492.44;;;19.33;45.55
69751;BME280;57335;52.288;6.056;2023-04-30T08:32:35;102480.69;;;19.41;45.99
69751;BME280;57335;52.288;6.056;2023-04-30T08:35:05;102494.66;;;19.67;45.10
69751;BME280;57335;52.288;6.056;2023-04-30T08:37:32;102495.56;;;19.61;45.23
69751;BME280;57335;52.288;6.056;2023-04-30T08:39:59;102503.66;;;19.66;44.43
69751;BME280;57335;52.288;6.056;2023-04-30T08:42:30;102502.00;;;19.23;45.41
69751;BME280;57335;52.288;6.056;2023-04-30T08:44:59;102504.84;;;19.40;45.88
69751;BME280;57335;52.288;6.056;2023-04-30T08:47:26;102490.19;;;19.49;46.50
69751;BME280;57335;52.288;6.056;2023-04-30T08:49:53;102493.81;;;19.66;45.14
69751;BME280;57335;52.288;6.056;2023-04-30T08:52:20;102497.75;;;19.94;44.73
69751;BME280;57335;52.288;6.056;2023-04-30T08:54:49;102487.25;;;19.99;44.20
69751;BME280;57335;52.288;6.056;2023-04-30T08:57:15;102497.97;;;19.62;45.31
69751;BME280;57335;52.288;6.056;2023-04-30T08:59:44;102500.78;;;19.37;46.17
69751;BME280;57335;52.288;6.056;2023-04-30T09:02:10;102484.94;;;19.12;47.99
69751;BME280;57335;52.288;6.056;2023-04-30T09:04:37;102489.50;;;19.23;47.03
69751;BME280;57335;52.288;6.056;2023-04-30T09:07:04;102488.97;;;19.33;45.24
69751;BME280;57335;52.288;6.056;2023-04-30T09:09:38;102489.50;;;19.23;45.53
69751;BME280;57335;52.288;6.056;2023-04-30T09:12:15;102478.16;;;18.98;45.76
69751;BME280;57335;52.288;6.056;2023-04-30T09:15:01;102485.09;;;18.99;47.62
69751;BME280;57335;52.288;6.056;2023-04-30T09:17:28;102489.97;;;18.83;46.52
69751;BME280;57335;52.288;6.056;2023-04-30T09:20:05;102489.38;;;18.56;47.55
69751;BME280;57335;52.288;6.056;2023-04-30T09:22:31;102481.56;;;18.61;46.70
69751;BME280;57335;52.288;6.056;2023-04-30T09:24:58;102485.88;;;18.62;47.61
69751;BME280;57335;52.288;6.056;2023-04-30T09:27:24;102479.59;;;18.75;46.22
69751;BME280;57335;52.288;6.056;2023-04-30T09:29:50;102469.84;;;18.50;47.22
69751;BME280;57335;52.288;6.056;2023-04-30T09:32:17;102468.19;;;18.49;48.65
69751;BME280;57335;52.288;6.056;2023-04-30T09:34:43;102469.56;;;18.33;46.65
69751;BME280;57335;52.288;6.056;2023-04-30T09:37:10;102482.91;;;18.27;48.74
69751;BME280;57335;52.288;6.056;2023-04-30T09:39:52;102479.75;;;18.11;47.80
69751;BME280;57335;52.288;6.056;2023-04-30T09:42:19;102462.50;;;18.02;47.05
69751;BME280;57335;52.288;6.056;2023-04-30T09:44:47;102454.03;;;17.87;48.15
69751;BME280;57335;52.288;6.056;2023-04-30T09:47:16;102461.94;;;17.93;48.59
69751;BME280;57335;52.288;6.056;2023-04-30T09:49:46;102458.88;;;17.97;50.05
69751;BME280;57335;52.288;6.056;2023-04-30T09:52:14;102461.47;;;18.03;49.38
69751;BME280;57335;52.288;6.056;2023-04-30T09:54:42;102446.94;;;18.06;47.84
69751;BME280;57335;52.288;6.056;2023-04-30T09:57:10;102455.59;;;18.20;48.58
69751;BME280;57335;52.288;6.056;2023-04-30T09:59:37;102455.41;;;18.21;49.24
69751;BME280;57335;52.288;6.056;2023-04-30T10:02:05;102454.69;;;18.07;48.70
69751;BME280;57335;52.288;6.056;2023-04-30T10:04:34;102456.91;;;17.85;49.28
69751;BME280;57335;52.288;6.056;2023-04-30T10:07:08;102449.84;;;17.66;47.53
69751;BME280;57335;52.288;6.056;2023-04-30T10:09:43;102451.41;;;17.42;52.07
69751;BME280;57335;52.288;6.056;2023-04-30T10:12:13;102436.59;;;17.34;51.31
69751;BME280;57335;52.288;6.056;2023-04-30T10:14:45;102441.06;;;17.33;51.23
69751;BME280;57335;52.288;6.056;2023-04-30T10:17:15;102442.63;;;17.48;49.37
69751;BME280;57335;52.288;6.056;2023-04-30T10:19:45;102435.44;;;17.55;51.28
69751;BME280;57335;52.288;6.056;2023-04-30T10:22:13;102425.78;;;17.67;47.86
69751;BME280;57335;52.288;6.056;2023-04-30T10:24:41;102444.22;;;17.87;49.33
69751;BME280;57335;52.288;6.056;2023-04-30T10:27:08;102427.44;;;17.93;52.29
69751;BME280;57335;52.288;6.056;2023-04-30T10:29:34;102422.13;;;18.00;50.01
69751;BME280;57335;52.288;6.056;2023-04-30T10:32:00;102434.34;;;18.01;50.34
69751;BME280;57335;52.288;6.056;2023-04-30T10:34:37;102431.03;;;18.06;50.07
69751;BME280;57335;52.288;6.056;2023-04-30T10:37:20;102420.72;;;18.16;50.16
69751;BME280;57335;52.288;6.056;2023-04-30T10:39:50;102413.63;;;18.35;49.32
69751;BME280;57335;52.288;6.056;2023-04-30T10:42:16;102415.31;;;18.29;49.20
69751;BME280;57335;52.288;6.056;2023-04-30T10:44:43;102413.63;;;18.35;49.05
69751;BME280;57335;52.288;6.056;2023-04-30T10:47:10;102408.09;;;18.18;48.59
69751;BME280;57335;52.288;6.056;2023-04-30T10:49:36;102409.38;;;18.09;50.28
69751;BME280;57335;52.288;6.056;2023-04-30T10:52:03;102411.53;;;18.19;50.25
69751;BME280;57335;52.288;6.056;2023-04-30T10:54:34;102396.13;;;18.09;49.27
69751;BME280;57335;52.288;6.056;2023-04-30T10:57:12;102394.41;;;17.96;50.97
69751;BME280;57335;52.288;6.056;2023-04-30T11:02:40;102386.31;;;18.28;52.99
69751;BME280;57335;52.288;6.056;2023-04-30T11:05:14;102397.03;;;18.40;50.83
69751;BME280;57335;52.288;6.056;2023-04-30T11:07:48;102394.75;;;18.25;50.39
69751;BME280;57335;52.288;6.056;2023-04-30T11:10:16;102370.25;;;18.04;51.64
69751;BME280;57335;52.288;6.056;2023-04-30T11:12:53;102376.84;;;18.20;50.04
69751;BME280;57335;52.288;6.056;2023-04-30T11:15:24;102376.59;;;18.22;52.27
69751;BME280;57335;52.288;6.056;2023-04-30T11:17:55;102377.94;;;18.31;53.43
69751;BME280;57335;52.288;6.056;2023-04-30T11:20:23;102374.19;;;18.39;51.10
69751;BME280;57335;52.288;6.056;2023-04-30T11:25:42;102360.63;;;18.28;51.35
69751;BME280;57335;52.288;6.056;2023-04-30T11:28:20;102368.78;;;18.27;54.60
69751;BME280;57335;52.288;6.056;2023-04-30T11:33:16;102364.25;;;18.52;52.57
69751;BME280;57335;52.288;6.056;2023-04-30T11:35:43;102375.28;;;18.49;51.96
69751;BME280;57335;52.288;6.056;2023-04-30T11:38:11;102352.28;;;18.43;50.87
69751;BME280;57335;52.288;6.056;2023-04-30T11:40:38;102353.59;;;18.34;57.17
69751;BME280;57335;52.288;6.056;2023-04-30T11:43:04;102359.34;;;18.49;52.90
69751;BME280;57335;52.288;6.056;2023-04-30T11:45:30;102341.94;;;18.53;51.34
69751;BME280;57335;52.288;6.056;2023-04-30T11:47:57;102337.28;;;18.67;50.33
69751;BME280;57335;52.288;6.056;2023-04-30T11:50:26;102338.28;;;18.54;52.60
69751;BME280;57335;52.288;6.056;2023-04-30T11:52:58;102339.28;;;18.53;51.92
69751;BME280;57335;52.288;6.056;2023-04-30T11:55:26;102332.22;;;18.47;53.24
69751;BME280;57335;52.288;6.056;2023-04-30T11:57:56;102327.63;;;18.36;52.53
69751;BME280;57335;52.288;6.056;2023-04-30T12:00:28;102327.38;;;18.44;52.20
69751;BME280;57335;52.288;6.056;2023-04-30T12:02:56;102322.09;;;18.56;53.49
69751;BME280;57335;52.288;6.056;2023-04-30T12:05:25;102317.97;;;18.79;52.50
69751;BME280;57335;52.288;6.056;2023-04-30T12:07:56;102306.72;;;18.95;48.83
69751;BME280;57335;52.288;6.056;2023-04-30T12:10:24;102325.22;;;19.02;50.09
69751;BME280;57335;52.288;6.056;2023-04-30T12:12:51;102321.16;;;18.99;49.08
69751;BME280;57335;52.288;6.056;2023-04-30T12:15:22;102323.25;;;18.97;48.67
69751;BME280;57335;52.288;6.056;2023-04-30T12:17:49;102314.78;;;18.88;50.53
69751;BME280;57335;52.288;6.056;2023-04-30T12:20:15;102318.47;;;18.87;49.40
69751;BME280;57335;52.288;6.056;2023-04-30T12:22:42;102310.88;;;18.72;50.70
69751;BME280;57335;52.288;6.056;2023-04-30T12:25:14;102301.88;;;18.73;52.08
69751;BME280;57335;52.288;6.056;2023-04-30T12:27:51;102298.59;;;18.90;51.00
69751;BME280;57335;52.288;6.056;2023-04-30T12:30:24;102308.38;;;19.08;50.28
69751;BME280;57335;52.288;6.056;2023-04-30T12:32:52;102310.59;;;19.11;50.74
69751;BME280;57335;52.288;6.056;2023-04-30T12:35:21;102307.13;;;19.22;49.79
69751;BME280;57335;52.288;6.056;2023-04-30T12:37:49;102293.25;;;19.08;50.39
69751;BME280;57335;52.288;6.056;2023-04-30T12:40:17;102290.59;;;19.08;51.93
69751;BME280;57335;52.288;6.056;2023-04-30T12:42:44;102296.25;;;19.12;52.61
69751;BME280;57335;52.288;6.056;2023-04-30T12:45:10;102291.59;;;18.96;52.07
69751;BME280;57335;52.288;6.056;2023-04-30T12:47:40;102291.03;;;18.75;53.58
69751;BME280;57335;52.288;6.056;2023-04-30T12:50:10;102279.50;;;18.51;53.39
69751;BME280;57335;52.288;6.056;2023-04-30T12:52:37;102285.50;;;18.58;50.87
69751;BME280;57335;52.288;6.056;2023-04-30T12:55:22;102290.28;;;18.68;51.22
69751;BME280;57335;52.288;6.056;2023-04-30T12:58:08;102285.50;;;18.77;49.72
69751;BME280;57335;52.288;6.056;2023-04-30T13:03:11;102283.88;;;19.06;50.03
69751;BME280;57335;52.288;6.056;2023-04-30T13:05:39;102273.03;;;19.07;51.02
69751;BME280;57335;52.288;6.056;2023-04-30T13:08:05;102268.72;;;18.95;53.04
69751;BME280;57335;52.288;6.056;2023-04-30T13:10:32;102270.16;;;18.79;52.41